Time;durP1;ratioP1;P1;durP2;ratioP2;P2;SDS_P1;SDS_P2;PMS_P1;PMS_P2;Temp;Humidity;BMP_temperature;BMP_pressure;BME280_temperature;BME280_humidity;BME280_pressure;Samples;Min_cycle;Max_cycle;Signal;HPM_P1;HPM_P2
2021/05/15 00:02:06;;;;;;;6.07;2.60;;;6.10;99.90;;;;;;5079911;28;20036;-83
2021/05/15 00:04:32;;;;;;;3.88;2.50;;;6.10;99.90;;;;;;5081498;28;20063;-83
2021/05/15 00:06:57;;;;;;;5.15;2.78;;;6.10;99.90;;;;;;5098469;28;20032;-83
2021/05/15 00:09:23;;;;;;;3.67;3.08;;;6.00;99.90;;;;;;5098190;28;20043;-83
2021/05/15 00:11:49;;;;;;;3.15;2.83;;;5.90;99.90;;;;;;5098566;28;20089;-81
2021/05/15 00:14:15;;;;;;;3.95;2.70;;;5.90;99.90;;;;;;5097378;28;20227;-81
2021/05/15 00:16:40;;;;;;;3.40;2.28;;;5.90;99.90;;;;;;5099200;28;20052;-81
2021/05/15 00:19:07;;;;;;;3.38;3.00;;;5.70;99.90;;;;;;5081048;28;20046;-81
2021/05/15 00:21:32;;;;;;;3.10;2.35;;;5.70;99.90;;;;;;5080040;28;20036;-83
2021/05/15 00:23:58;;;;;;;3.75;1.90;;;5.70;99.90;;;;;;5098903;28;20047;-81
2021/05/15 00:26:25;;;;;;;4.78;2.30;;;5.70;99.90;;;;;;5080499;28;20047;-83
2021/05/15 00:28:51;;;;;;;2.53;1.90;;;5.60;99.90;;;;;;5079900;28;20085;-83
2021/05/15 00:31:16;;;;;;;3.45;2.05;;;5.60;99.90;;;;;;5096765;28;20028;-83
2021/05/15 00:33:42;;;;;;;3.80;1.90;;;5.60;99.90;;;;;;5097041;28;20046;-83
2021/05/15 00:36:07;;;;;;;2.15;1.95;;;5.50;99.90;;;;;;5078277;28;20431;-83
2021/05/15 00:38:33;;;;;;;2.92;2.65;;;5.50;99.90;;;;;;5078529;28;20568;-83
2021/05/15 00:40:59;;;;;;;6.80;2.85;;;5.40;99.90;;;;;;5096626;28;20088;-81
2021/05/15 00:43:27;;;;;;;3.95;2.75;;;5.50;99.90;;;;;;5097255;28;20093;-81
2021/05/15 00:45:53;;;;;;;3.75;2.53;;;5.50;99.90;;;;;;5096508;28;20621;-83
2021/05/15 00:48:18;;;;;;;4.80;2.67;;;5.40;99.90;;;;;;5095728;28;20165;-83
2021/05/15 00:50:44;;;;;;;3.38;2.40;;;5.40;99.90;;;;;;5077895;28;20085;-83
2021/05/15 00:53:10;;;;;;;5.45;3.00;;;5.30;99.90;;;;;;5095518;28;20047;-83
2021/05/15 00:55:36;;;;;;;4.43;2.50;;;5.20;99.90;;;;;;5096072;28;20062;-83
2021/05/15 00:58:03;;;;;;;2.40;1.67;;;5.20;99.90;;;;;;5077409;28;20480;-83
2021/05/15 01:00:29;;;;;;;5.35;2.22;;;5.10;99.90;;;;;;5077095;28;20036;-82
2021/05/15 01:02:55;;;;;;;3.47;2.10;;;5.00;99.90;;;;;;5095711;28;20484;-83
2021/05/15 01:05:21;;;;;;;4.80;1.70;;;5.00;99.90;;;;;;5095251;28;20036;-83
2021/05/15 01:07:47;;;;;;;4.47;2.08;;;5.10;99.90;;;;;;5077231;28;20032;-83
2021/05/15 01:10:14;;;;;;;2.90;1.85;;;5.00;99.90;;;;;;5079773;28;20032;-83
2021/05/15 01:12:52;;;;;;;3.15;2.08;;;4.90;99.90;;;;;;5096552;28;20459;-83
2021/05/15 01:15:19;;;;;;;5.68;2.20;;;4.80;99.90;;;;;;5082054;28;20118;-83
2021/05/15 01:17:52;;;;;;;3.60;2.00;;;4.80;99.90;;;;;;5100771;28;20040;-84
2021/05/15 01:20:19;;;;;;;1.90;1.80;;;4.80;99.90;;;;;;5099931;28;20028;-84
2021/05/15 01:22:45;;;;;;;3.25;1.75;;;4.80;99.90;;;;;;5081558;28;20047;-84
2021/05/15 01:25:11;;;;;;;1.67;1.58;;;4.80;99.90;;;;;;5098133;28;20068;-81
2021/05/15 01:27:37;;;;;;;1.80;1.70;;;4.80;99.90;;;;;;5098773;28;20040;-81
2021/05/15 01:30:05;;;;;;;2.33;1.90;;;4.80;99.90;;;;;;5098507;28;20039;-84
2021/05/15 01:32:30;;;;;;;1.60;1.50;;;4.70;99.90;;;;;;5079641;28;20063;-84
2021/05/15 01:34:56;;;;;;;2.22;1.90;;;4.60;99.90;;;;;;5079666;28;20515;-83
2021/05/15 01:37:22;;;;;;;4.22;2.00;;;4.70;99.90;;;;;;5079314;28;20031;-84
2021/05/15 01:39:47;;;;;;;3.30;1.77;;;4.70;99.90;;;;;;5096823;28;20040;-82
2021/05/15 01:42:13;;;;;;;3.95;2.08;;;4.70;99.90;;;;;;5078291;28;20024;-81
2021/05/15 01:44:38;;;;;;;2.30;1.90;;;4.60;99.90;;;;;;5096793;28;20077;-84
2021/05/15 01:47:04;;;;;;;4.22;1.70;;;4.50;99.90;;;;;;5078097;28;20488;-84
2021/05/15 01:49:30;;;;;;;17.13;2.15;;;4.60;99.90;;;;;;5096279;28;20063;-83
2021/05/15 01:51:55;;;;;;;2.65;1.90;;;4.50;99.90;;;;;;5077938;28;20028;-83
2021/05/15 01:54:21;;;;;;;3.33;1.50;;;4.50;99.90;;;;;;5095483;28;20515;-83
2021/05/15 01:56:46;;;;;;;2.22;1.90;;;4.50;99.90;;;;;;5095502;28;20191;-83
2021/05/15 01:59:12;;;;;;;3.17;1.90;;;4.60;99.90;;;;;;5095633;28;20050;-83
2021/05/15 02:01:38;;;;;;;5.88;2.03;;;4.50;99.90;;;;;;5095755;28;20078;-84
2021/05/15 02:04:03;;;;;;;2.45;2.30;;;4.50;99.90;;;;;;5095284;28;20040;-81
2021/05/15 02:06:29;;;;;;;3.95;2.78;;;4.40;99.90;;;;;;5095827;28;20028;-83
2021/05/15 02:08:55;;;;;;;6.90;3.13;;;4.40;99.90;;;;;;5095537;28;20492;-83
2021/05/15 02:11:20;;;;;;;3.40;2.78;;;4.40;99.90;;;;;;5076886;28;20135;-84
2021/05/15 02:13:48;;;;;;;8.27;2.70;;;4.40;99.90;;;;;;5095687;28;20036;-83
2021/05/15 02:16:14;;;;;;;3.00;2.80;;;4.40;99.90;;;;;;5076772;28;20077;-83
2021/05/15 02:18:40;;;;;;;4.10;2.30;;;4.40;99.90;;;;;;5095651;28;20553;-81
2021/05/15 02:21:06;;;;;;;3.63;2.42;;;4.40;99.90;;;;;;5077756;28;20119;-80
2021/05/15 02:23:32;;;;;;;2.10;2.00;;;4.30;99.90;;;;;;5095306;28;20036;-83
2021/05/15 02:25:58;;;;;;;2.17;1.92;;;4.20;99.90;;;;;;5095297;28;20481;-83
2021/05/15 02:28:24;;;;;;;6.25;2.10;;;4.20;99.90;;;;;;5095752;28;20114;-81
2021/05/15 02:30:50;;;;;;;2.05;1.85;;;4.10;99.90;;;;;;5077507;28;20392;-84
2021/05/15 02:33:16;;;;;;;3.95;1.92;;;4.20;99.90;;;;;;5095833;28;20111;-83
2021/05/15 02:35:42;;;;;;;2.15;1.95;;;4.20;99.90;;;;;;5095719;28;20504;-83
2021/05/15 02:38:10;;;;;;;8.65;2.60;;;4.20;99.90;;;;;;5097750;28;20074;-84
2021/05/15 02:40:36;;;;;;;2.95;1.80;;;4.20;99.90;;;;;;5099858;28;20032;-83
2021/05/15 02:43:02;;;;;;;2.17;1.98;;;4.20;99.90;;;;;;5100260;28;20040;-84
2021/05/15 02:45:28;;;;;;;4.55;2.35;;;4.20;99.90;;;;;;5100365;28;20139;-81
2021/05/15 02:47:54;;;;;;;3.72;2.30;;;4.10;99.90;;;;;;5084666;28;20496;-84
2021/05/15 02:50:21;;;;;;;7.25;2.67;;;4.00;99.90;;;;;;5084747;28;20028;-83
2021/05/15 02:52:46;;;;;;;2.35;1.95;;;4.00;99.90;;;;;;5101407;28;20039;-84
2021/05/15 02:55:15;;;;;;;7.05;2.53;;;4.00;99.90;;;;;;5101603;28;20044;-84
2021/05/15 02:57:42;;;;;;;2.63;2.42;;;4.00;99.90;;;;;;5101212;28;20040;-84
2021/05/15 03:00:11;;;;;;;6.05;3.30;;;3.90;99.90;;;;;;5083630;28;20035;-83
2021/05/15 03:02:36;;;;;;;7.38;3.88;;;3.90;99.90;;;;;;5082766;28;20031;-84
2021/05/15 03:05:07;;;;;;;7.40;3.40;;;4.00;99.90;;;;;;5082391;28;20054;-84
2021/05/15 03:07:33;;;;;;;4.32;3.13;;;4.00;99.90;;;;;;5084543;28;20035;-84
2021/05/15 03:09:58;;;;;;;6.60;2.90;;;4.00;99.90;;;;;;5103035;28;20036;-84
2021/05/15 03:12:24;;;;;;;5.22;3.40;;;4.10;99.90;;;;;;5084656;28;20031;-84
2021/05/15 03:14:50;;;;;;;3.38;3.03;;;4.00;99.90;;;;;;5102034;28;20229;-84
2021/05/15 03:17:15;;;;;;;3.47;3.17;;;4.00;99.90;;;;;;5083334;28;20048;-83
2021/05/15 03:19:41;;;;;;;5.80;3.88;;;3.90;99.90;;;;;;5100550;28;20047;-84
2021/05/15 03:22:07;;;;;;;3.47;3.10;;;3.80;99.90;;;;;;5082795;28;20039;-84
2021/05/15 03:24:33;;;;;;;6.90;3.40;;;4.00;99.90;;;;;;5100525;28;20546;-84
2021/05/15 03:26:59;;;;;;;3.40;3.10;;;4.00;99.90;;;;;;5082828;28;20378;-84
2021/05/15 03:29:26;;;;;;;6.75;3.42;;;4.00;99.90;;;;;;5100964;28;20067;-84
2021/05/15 03:31:51;;;;;;;7.90;3.35;;;4.00;99.90;;;;;;5101778;28;20028;-84
2021/05/15 03:34:18;;;;;;;7.00;3.25;;;4.10;99.90;;;;;;5101057;28;20527;-84
2021/05/15 03:36:43;;;;;;;9.38;3.20;;;4.00;99.90;;;;;;5083420;28;20404;-84
2021/05/15 03:39:09;;;;;;;4.90;2.90;;;4.00;99.90;;;;;;5083273;28;20040;-84
2021/05/15 03:41:34;;;;;;;3.83;2.85;;;4.00;99.90;;;;;;5101305;28;20200;-84
2021/05/15 03:44:00;;;;;;;10.00;3.35;;;4.10;99.90;;;;;;5101352;28;20051;-84
2021/05/15 03:46:26;;;;;;;3.28;2.97;;;4.10;99.90;;;;;;5084747;28;20055;-84
2021/05/15 03:48:51;;;;;;;3.95;3.00;;;4.10;99.90;;;;;;5085291;28;20081;-83
2021/05/15 03:51:17;;;;;;;5.63;3.33;;;4.20;99.90;;;;;;5103619;28;20096;-85
2021/05/15 03:53:42;;;;;;;5.75;3.78;;;4.20;99.90;;;;;;5081696;28;20226;-84
2021/05/15 03:56:08;;;;;;;4.13;3.50;;;4.30;99.90;;;;;;5079766;28;20039;-84
2021/05/15 03:58:34;;;;;;;6.85;4.80;;;4.40;99.90;;;;;;5098028;28;20040;-84
2021/05/15 04:00:59;;;;;;;8.88;5.80;;;4.50;99.90;;;;;;5079423;28;20081;-84
2021/05/15 04:03:25;;;;;;;9.50;5.10;;;4.70;99.90;;;;;;5097373;28;20051;-84
2021/05/15 04:05:51;;;;;;;7.10;5.57;;;4.80;99.90;;;;;;5097779;28;20036;-80
2021/05/15 04:08:17;;;;;;;8.07;5.50;;;5.00;99.90;;;;;;5098228;28;20032;-82
2021/05/15 04:10:43;;;;;;;5.85;5.35;;;5.10;99.90;;;;;;5097335;28;20068;-82
2021/05/15 04:15:59;;;;;;;6.60;5.95;;;5.30;99.90;;;;;;5096964;28;20083;-82
2021/05/15 04:18:28;;;;;;;6.80;4.93;;;5.40;99.90;;;;;;5079282;28;20028;-83
2021/05/15 04:20:54;;;;;;;5.65;4.55;;;5.50;99.90;;;;;;5078770;28;20073;-84
2021/05/15 04:23:21;;;;;;;4.90;4.40;;;5.60;99.90;;;;;;5078608;28;20540;-81
2021/05/15 04:25:46;;;;;;;4.13;3.72;;;5.80;99.90;;;;;;5097866;28;20484;-84
2021/05/15 04:28:13;;;;;;;4.90;4.45;;;6.00;99.90;;;;;;5078313;28;20082;-83
2021/05/15 04:30:38;;;;;;;5.35;4.65;;;6.20;99.90;;;;;;5078825;28;20028;-83
2021/05/15 04:33:04;;;;;;;4.15;3.85;;;6.40;99.90;;;;;;5096227;28;20032;-84
2021/05/15 04:35:32;;;;;;;4.57;4.10;;;6.50;99.90;;;;;;5078624;28;20043;-84
2021/05/15 04:38:03;;;;;;;3.78;3.38;;;6.70;99.90;;;;;;5079392;28;20039;-84
2021/05/15 04:40:29;;;;;;;5.18;3.95;;;6.90;99.90;;;;;;5098479;28;20036;-84
2021/05/15 04:42:56;;;;;;;7.50;3.60;;;6.90;99.90;;;;;;5077720;28;20036;-83
2021/05/15 04:45:22;;;;;;;3.78;3.22;;;6.90;99.90;;;;;;5095721;28;20040;-84
2021/05/15 04:47:47;;;;;;;2.90;2.70;;;7.00;99.90;;;;;;5080343;28;20035;-83
2021/05/15 04:50:13;;;;;;;2.33;2.13;;;7.10;99.90;;;;;;5097335;28;20036;-84
2021/05/15 04:52:39;;;;;;;2.70;2.50;;;7.20;99.90;;;;;;5096214;28;20028;-81
2021/05/15 04:55:05;;;;;;;2.70;1.98;;;7.30;99.90;;;;;;5081851;28;20061;-83
2021/05/15 04:57:31;;;;;;;1.90;1.80;;;7.40;99.90;;;;;;5101529;28;20407;-84
2021/05/15 04:59:56;;;;;;;3.45;1.90;;;7.50;99.90;;;;;;5080557;28;20032;-82
2021/05/15 05:02:22;;;;;;;6.63;1.90;;;7.60;99.90;;;;;;5077357;28;20480;-83
2021/05/15 05:04:48;;;;;;;2.83;1.98;;;7.70;99.90;;;;;;5095683;28;20044;-82
2021/05/15 05:07:13;;;;;;;1.80;1.70;;;7.80;99.90;;;;;;5096725;28;20115;-83
2021/05/15 05:09:39;;;;;;;1.70;1.60;;;7.90;99.90;;;;;;5077991;28;20081;-83
2021/05/15 05:12:05;;;;;;;4.45;1.98;;;8.10;99.90;;;;;;5077240;28;20105;-82
2021/05/15 05:14:31;;;;;;;3.60;1.50;;;8.20;99.90;;;;;;5096356;28;20066;-83
2021/05/15 05:16:56;;;;;;;2.80;1.75;;;8.30;99.90;;;;;;5095194;28;20509;-83
2021/05/15 05:19:23;;;;;;;2.22;1.75;;;8.40;99.90;;;;;;5076492;28;20036;-83
2021/05/15 05:21:50;;;;;;;2.65;1.70;;;8.40;99.90;;;;;;5094594;28;20036;-83
2021/05/15 05:24:15;;;;;;;2.65;1.58;;;8.50;99.90;;;;;;5094659;28;20040;-82
2021/05/15 05:26:41;;;;;;;2.15;1.70;;;8.70;99.90;;;;;;5095321;28;20518;-82
2021/05/15 05:29:08;;;;;;;1.83;1.67;;;8.70;99.90;;;;;;5076754;28;20511;-82
2021/05/15 05:31:35;;;;;;;8.32;1.90;;;8.80;99.90;;;;;;5076849;28;20469;-81
2021/05/15 05:34:01;;;;;;;1.60;1.50;;;8.80;99.90;;;;;;5095164;28;20508;-83
2021/05/15 05:36:27;;;;;;;1.67;1.38;;;8.90;99.90;;;;;;5094742;28;20039;-82
2021/05/15 05:38:52;;;;;;;2.08;1.73;;;8.90;99.90;;;;;;5077192;28;20500;-80
2021/05/15 05:41:20;;;;;;;1.60;1.50;;;9.00;99.90;;;;;;5076697;28;20036;-80
2021/05/15 05:43:46;;;;;;;1.73;1.63;;;9.10;99.90;;;;;;5094837;28;20036;-83
2021/05/15 05:46:11;;;;;;;1.50;1.40;;;9.20;99.90;;;;;;5076974;28;20039;-81
2021/05/15 05:48:37;;;;;;;2.20;1.48;;;9.30;99.90;;;;;;5076234;28;20043;-81
2021/05/15 05:51:03;;;;;;;2.30;1.85;;;9.50;99.90;;;;;;5076688;28;20039;-83
2021/05/15 05:53:28;;;;;;;1.67;1.50;;;9.70;99.90;;;;;;5094471;28;20027;-80
2021/05/15 05:55:54;;;;;;;1.95;1.13;;;9.90;99.90;;;;;;5081654;28;20056;-81
2021/05/15 05:58:19;;;;;;;7.30;1.65;;;10.10;99.90;;;;;;5096473;28;20024;-80
2021/05/15 06:00:45;;;;;;;2.88;1.00;;;10.30;99.90;;;;;;5079195;28;20039;-81
2021/05/15 06:03:10;;;;;;;0.95;0.82;;;10.30;99.90;;;;;;5078317;28;20408;-81
2021/05/15 06:05:36;;;;;;;0.90;0.90;;;10.50;99.90;;;;;;5096140;28;20081;-81
2021/05/15 06:08:09;;;;;;;1.05;1.05;;;10.70;99.90;;;;;;5077495;28;20093;-81
2021/05/15 06:10:36;;;;;;;0.75;0.70;;;10.90;99.90;;;;;;5078529;28;20501;-81
2021/05/15 06:13:03;;;;;;;2.20;1.88;;;11.10;99.90;;;;;;5099827;28;20473;-81
2021/05/15 06:15:28;;;;;;;1.25;1.10;;;11.30;99.90;;;;;;5100632;28;20044;-81
2021/05/15 06:17:54;;;;;;;0.73;0.73;;;11.50;99.90;;;;;;5098125;28;20100;-81
2021/05/15 06:20:20;;;;;;;1.23;0.98;;;11.40;99.90;;;;;;5097721;28;20036;-82
2021/05/15 06:22:45;;;;;;;0.65;0.65;;;11.30;99.90;;;;;;5079765;28;20114;-82
2021/05/15 06:25:12;;;;;;;3.85;1.42;;;11.20;99.90;;;;;;5097718;28;20036;-82
2021/05/15 06:27:37;;;;;;;1.83;0.80;;;11.30;99.90;;;;;;5097442;28;20024;-81
2021/05/15 06:30:04;;;;;;;3.15;0.60;;;11.40;99.90;;;;;;5079188;28;20032;-82
2021/05/15 06:32:30;;;;;;;2.38;0.70;;;11.50;99.90;;;;;;5097332;28;20032;-81
2021/05/15 06:34:55;;;;;;;1.40;0.50;;;12.00;99.90;;;;;;5079217;28;20040;-80
2021/05/15 06:37:21;;;;;;;0.68;0.50;;;12.80;99.90;;;;;;5096876;28;20064;-80
2021/05/15 06:39:46;;;;;;;1.15;0.50;;;13.70;99.90;;;;;;5078395;28;20043;-81
2021/05/15 06:42:12;;;;;;;0.60;0.57;;;15.30;99.90;;;;;;5096565;28;20036;-80
2021/05/15 06:44:38;;;;;;;0.82;0.82;;;16.50;99.90;;;;;;5079281;28;20074;-81
2021/05/15 06:47:03;;;;;;;0.43;0.32;;;16.90;99.90;;;;;;5099057;28;20169;-80
2021/05/15 06:49:29;;;;;;;0.90;0.40;;;16.80;99.90;;;;;;5080210;28;20028;-83
2021/05/15 06:51:55;;;;;;;0.73;0.50;;;15.70;99.90;;;;;;5098049;28;20365;-81
2021/05/15 06:54:20;;;;;;;2.33;0.47;;;15.70;99.90;;;;;;5098449;28;20036;-80
2021/05/15 06:56:46;;;;;;;0.47;0.43;;;15.50;99.90;;;;;;5097635;28;20044;-80
2021/05/15 06:59:11;;;;;;;2.58;0.50;;;15.40;99.90;;;;;;5097735;28;20085;-79
2021/05/15 07:01:37;;;;;;;1.75;0.50;;;15.00;99.90;;;;;;5097333;28;20047;-79
2021/05/15 07:04:03;;;;;;;0.40;0.40;;;15.40;99.90;;;;;;5096613;28;20040;-80
2021/05/15 07:06:28;;;;;;;0.85;0.40;;;15.40;99.90;;;;;;5078734;28;20066;-79
2021/05/15 07:08:54;;;;;;;1.10;0.40;;;16.00;99.90;;;;;;5096557;28;20389;-79
2021/05/15 07:11:19;;;;;;;1.25;0.40;;;16.40;99.90;;;;;;5077836;28;20035;-78
2021/05/15 07:13:45;;;;;;;0.50;0.50;;;16.60;99.90;;;;;;5077234;28;20032;-80
2021/05/15 07:16:11;;;;;;;1.52;0.75;;;16.30;99.90;;;;;;5073929;28;20520;-80
2021/05/15 07:18:36;;;;;;;1.35;0.50;;;15.90;99.90;;;;;;5075364;28;20120;-80
2021/05/15 07:21:02;;;;;;;3.10;0.50;;;16.70;99.90;;;;;;5074713;28;20066;-78
2021/05/15 07:23:28;;;;;;;0.75;0.57;;;17.50;99.90;;;;;;5075486;28;20043;-79
2021/05/15 07:25:53;;;;;;;0.30;0.30;;;18.80;99.90;;;;;;5079560;28;20036;-81
2021/05/15 07:28:19;;;;;;;1.27;0.50;;;19.80;99.90;;;;;;5061996;28;20393;-80
2021/05/15 07:30:44;;;;;;;0.70;0.50;;;18.50;99.90;;;;;;5080472;28;20090;-81
2021/05/15 07:33:11;;;;;;;0.85;0.47;;;17.90;99.90;;;;;;5079911;28;20051;-80
2021/05/15 07:35:37;;;;;;;1.17;0.30;;;18.30;99.90;;;;;;5080771;28;20040;-78
2021/05/15 07:38:03;;;;;;;0.28;0.22;;;20.20;99.90;;;;;;5080043;28;20051;-80
2021/05/15 07:40:28;;;;;;;1.45;0.30;;;22.20;97.20;;;;;;5078572;28;20089;-80
2021/05/15 07:42:54;;;;;;;0.60;0.30;;;23.80;89.60;;;;;;5078910;28;20119;-81
2021/05/15 07:45:20;;;;;;;2.30;0.30;;;24.50;81.00;;;;;;5078196;28;20549;-78
2021/05/15 07:47:45;;;;;;;2.80;0.60;;;24.90;80.10;;;;;;5078413;28;20035;-79
2021/05/15 07:50:11;;;;;;;0.20;0.20;;;25.70;73.10;;;;;;5079526;28;20067;-80
2021/05/15 07:52:38;;;;;;;0.32;0.30;;;26.30;68.60;;;;;;5080235;28;20439;-80
2021/05/15 07:55:06;;;;;;;1.08;0.40;;;26.20;66.30;;;;;;5078304;28;20033;-79
2021/05/15 07:57:32;;;;;;;1.55;0.63;;;24.30;65.20;;;;;;5081013;28;20070;-80
2021/05/15 07:59:57;;;;;;;0.30;0.25;;;21.50;70.30;;;;;;5080029;28;20040;-80
2021/05/15 08:02:27;;;;;;;0.40;0.40;;;20.20;76.70;;;;;;5080268;28;20042;-80
2021/05/15 08:04:53;;;;;;;0.75;0.40;;;19.50;87.90;;;;;;5079024;28;20090;-80
2021/05/15 08:07:18;;;;;;;0.68;0.40;;;20.40;88.30;;;;;;5079919;28;20037;-80
2021/05/15 08:09:44;;;;;;;1.00;0.50;;;19.90;89.40;;;;;;5080585;28;20043;-79
2021/05/15 08:12:10;;;;;;;0.88;0.50;;;18.70;90.70;;;;;;5079264;28;20062;-80
2021/05/15 08:14:35;;;;;;;1.90;0.40;;;17.80;96.80;;;;;;5083277;28;20032;-79
2021/05/15 08:17:01;;;;;;;0.80;0.40;;;16.80;99.90;;;;;;5097852;28;20062;-78
2021/05/15 08:19:27;;;;;;;1.65;0.50;;;16.00;99.90;;;;;;5103966;28;20089;-77
2021/05/15 08:21:53;;;;;;;0.98;0.35;;;15.60;99.90;;;;;;5104236;28;20067;-77
2021/05/15 08:24:19;;;;;;;1.85;0.30;;;16.40;99.90;;;;;;5100707;28;20032;-79
2021/05/15 08:26:45;;;;;;;0.70;0.68;;;17.50;99.90;;;;;;5085835;28;20032;-80
2021/05/15 08:29:13;;;;;;;1.77;0.68;;;18.20;99.90;;;;;;5103858;28;20073;-79
2021/05/15 08:31:39;;;;;;;0.40;0.40;;;17.60;99.90;;;;;;5105372;28;20085;-80
2021/05/15 08:34:04;;;;;;;0.40;0.40;;;16.90;99.90;;;;;;5099412;28;20041;-80
2021/05/15 08:36:30;;;;;;;0.60;0.32;;;16.60;99.90;;;;;;5099038;28;20044;-80
2021/05/15 08:38:57;;;;;;;0.40;0.28;;;17.60;99.90;;;;;;5081361;28;20507;-79
2021/05/15 08:41:23;;;;;;;0.50;0.40;;;20.80;99.90;;;;;;5099359;28;20451;-80
2021/05/15 08:43:49;;;;;;;0.80;0.40;;;24.10;84.00;;;;;;5080903;28;20515;-81
2021/05/15 08:46:15;;;;;;;0.73;0.22;;;25.40;72.50;;;;;;5099649;28;20044;-80
2021/05/15 08:48:43;;;;;;;0.63;0.40;;;25.30;70.80;;;;;;5100128;28;20036;-81
2021/05/15 08:51:10;;;;;;;0.60;0.43;;;26.10;61.30;;;;;;5101182;28;20066;-81
2021/05/15 08:53:40;;;;;;;0.43;0.40;;;24.20;65.90;;;;;;5082009;28;20032;-80
2021/05/15 08:56:10;;;;;;;0.73;0.45;;;22.30;70.50;;;;;;5081926;28;20043;-81
2021/05/15 08:58:39;;;;;;;0.52;0.30;;;20.30;77.50;;;;;;5082314;28;20042;-80
2021/05/15 09:01:11;;;;;;;2.67;0.65;;;19.00;88.50;;;;;;5099280;28;20043;-80
2021/05/15 09:03:38;;;;;;;1.55;0.30;;;19.10;92.80;;;;;;5081255;28;20504;-81
2021/05/15 09:06:05;;;;;;;0.80;0.40;;;18.70;93.10;;;;;;5098730;28;20055;-80
2021/05/15 09:08:32;;;;;;;1.65;1.52;;;18.20;94.90;;;;;;5099068;28;20066;-80
2021/05/15 09:10:59;;;;;;;1.48;0.95;;;18.30;95.50;;;;;;5098710;28;20041;-80
2021/05/15 09:13:28;;;;;;;1.10;0.45;;;19.50;95.10;;;;;;5081069;28;20044;-81
2021/05/15 09:16:01;;;;;;;0.60;0.43;;;20.10;91.90;;;;;;5098422;28;20478;-79
2021/05/15 09:18:34;;;;;;;0.60;0.60;;;21.80;87.20;;;;;;5098257;28;20102;-81
2021/05/15 09:21:03;;;;;;;;;;;24.30;76.10;;;;;;5099419;28;20047;-80
2021/05/15 09:23:38;;;;;;;0.47;0.30;;;25.10;68.10;;;;;;5081737;28;19924;-80
2021/05/15 09:26:10;;;;;;;0.43;0.20;;;25.50;64.30;;;;;;5097698;28;20079;-78
2021/05/15 09:28:47;;;;;;;0.45;0.30;;;25.00;62.30;;;;;;5097431;28;20079;-80
2021/05/15 09:31:23;;;;;;;0.93;0.22;;;24.80;62.30;;;;;;5096820;28;20040;-80
2021/05/15 09:34:00;;;;;;;0.55;0.20;;;23.50;64.40;;;;;;5080085;28;20044;-80
2021/05/15 09:36:33;;;;;;;2.30;0.43;;;21.90;66.80;;;;;;5085026;28;20040;-80
2021/05/15 09:39:04;;;;;;;;;;;20.70;70.70;;;;;;5077825;28;20045;-80
2021/05/15 09:41:35;;;;;;;0.35;0.35;;;20.00;75.50;;;;;;5077125;28;20014;-80
2021/05/15 09:44:04;;;;;;;0.50;0.50;;;19.20;78.30;;;;;;5076555;28;20072;-80
2021/05/15 09:46:33;;;;;;;1.38;0.40;;;18.30;81.40;;;;;;5077172;28;20500;-80
2021/05/15 09:49:00;;;;;;;0.52;0.30;;;17.40;91.10;;;;;;5081071;28;20041;-79
2021/05/15 09:51:28;;;;;;;0.52;0.40;;;16.70;95.80;;;;;;5062398;28;20049;-80
2021/05/15 09:53:54;;;;;;;0.80;0.30;;;16.50;99.90;;;;;;5061248;28;20044;-80
2021/05/15 09:56:31;;;;;;;0.80;0.28;;;16.20;99.90;;;;;;5078606;28;20072;-80
2021/05/15 09:58:58;;;;;;;3.20;0.40;;;16.50;99.90;;;;;;5060129;28;20436;-80
2021/05/15 10:01:25;;;;;;;0.98;0.40;;;19.40;99.00;;;;;;5077459;28;20068;-81
2021/05/15 10:03:59;;;;;;;2.17;0.60;;;20.10;91.10;;;;;;5059836;28;20049;-80
2021/05/15 10:06:26;;;;;;;0.38;0.38;;;20.50;91.20;;;;;;5077574;28;20079;-80
2021/05/15 10:08:53;;;;;;;0.30;0.30;;;21.80;82.50;;;;;;5059240;28;20044;-81
2021/05/15 10:11:21;;;;;;;3.63;0.90;;;21.30;79.90;;;;;;5059286;28;20477;-80
2021/05/15 10:13:48;;;;;;;1.00;0.35;;;21.50;80.60;;;;;;5077160;28;20076;-80
2021/05/15 10:16:14;;;;;;;0.63;0.50;;;22.60;77.50;;;;;;5058857;28;20061;-80
2021/05/15 10:18:41;;;;;;;0.65;0.30;;;23.60;72.70;;;;;;5059287;28;20048;-81
2021/05/15 10:21:08;;;;;;;1.13;0.38;;;24.70;67.30;;;;;;5077186;28;20048;-80
2021/05/15 10:23:36;;;;;;;1.83;0.40;;;23.80;65.90;;;;;;5058220;28;20049;-80
2021/05/15 10:26:19;;;;;;;3.03;0.50;;;24.00;67.50;;;;;;5077269;28;20080;-80
2021/05/15 10:29:02;;;;;;;0.88;0.50;;;24.00;64.10;;;;;;5078253;28;20076;-81
2021/05/15 10:31:42;;;;;;;0.57;0.40;;;24.30;61.40;;;;;;5078794;28;20429;-79
2021/05/15 10:34:10;;;;;;;1.55;0.40;;;23.90;61.50;;;;;;5078165;28;20084;-80
2021/05/15 10:36:45;;;;;;;1.13;0.60;;;23.60;60.70;;;;;;5077676;28;20055;-79
2021/05/15 10:39:12;;;;;;;0.43;0.30;;;24.50;61.50;;;;;;5058509;28;20075;-80
2021/05/15 10:41:45;;;;;;;1.33;0.30;;;25.00;60.00;;;;;;5058499;28;20127;-82
2021/05/15 10:44:13;;;;;;;0.45;0.35;;;24.50;58.80;;;;;;5076747;28;20044;-79
2021/05/15 10:46:45;;;;;;;1.33;0.30;;;23.50;61.70;;;;;;5077470;28;20420;-79
2021/05/15 10:49:16;;;;;;;3.15;0.43;;;25.20;62.80;;;;;;5059671;28;20087;-79
2021/05/15 10:51:48;;;;;;;1.45;0.20;;;24.90;59.10;;;;;;5058975;28;20076;-81
2021/05/15 10:54:28;;;;;;;2.28;0.47;;;25.20;58.80;;;;;;5058367;28;20682;-81
2021/05/15 10:57:01;;;;;;;1.15;0.30;;;25.60;57.20;;;;;;5076233;28;20416;-81
2021/05/15 10:59:28;;;;;;;;;;;26.70;55.30;;;;;;5061919;28;20051;-80
2021/05/15 11:01:58;;;;;;;1.35;0.20;;;27.10;55.40;;;;;;5080346;28;19956;-80
2021/05/15 11:04:31;;;;;;;0.30;0.20;;;27.30;52.20;;;;;;5061615;28;20055;-81
2021/05/15 11:07:03;;;;;;;0.15;0.10;;;27.10;51.90;;;;;;5079624;28;20048;-79
2021/05/15 11:09:32;;;;;;;0.85;0.20;;;26.80;52.00;;;;;;5096557;28;20044;-82
2021/05/15 11:12:06;;;;;;;0.90;0.20;;;26.90;52.40;;;;;;5080743;28;20040;-80
2021/05/15 11:14:41;;;;;;;1.27;0.20;;;25.10;52.20;;;;;;5080330;28;20157;-80
2021/05/15 11:17:21;;;;;;;0.13;0.13;;;25.10;54.20;;;;;;5080269;28;20059;-80
2021/05/15 11:19:52;;;;;;;1.40;0.40;;;24.50;54.50;;;;;;5080951;28;20569;-80
2021/05/15 11:22:21;;;;;;;2.90;0.32;;;23.40;55.70;;;;;;5080960;28;20228;-81
2021/05/15 11:24:56;;;;;;;2.20;0.40;;;22.40;57.90;;;;;;5098435;28;20044;-79
2021/05/15 11:27:23;;;;;;;0.47;0.30;;;21.40;59.30;;;;;;5099388;28;20093;-80
2021/05/15 11:30:13;;;;;;;3.50;0.73;;;20.60;61.50;;;;;;5080917;28;20124;-80
2021/05/15 11:32:40;;;;;;;0.25;0.13;;;19.90;64.40;;;;;;5080897;28;20083;-81
2021/05/15 11:35:08;;;;;;;1.80;0.50;;;19.10;68.30;;;;;;5060911;28;20108;-79
2021/05/15 11:37:35;;;;;;;1.23;0.32;;;18.70;73.00;;;;;;5061506;28;20059;-79
2021/05/15 11:40:02;;;;;;;0.55;0.20;;;18.20;72.80;;;;;;5087590;28;20048;-80
2021/05/15 11:42:31;;;;;;;0.70;0.38;;;18.30;75.40;;;;;;5098927;28;20052;-79
2021/05/15 11:44:57;;;;;;;0.45;0.45;;;18.90;78.90;;;;;;5080447;28;20048;-79
2021/05/15 11:47:25;;;;;;;2.05;0.30;;;19.50;75.80;;;;;;5081949;28;20078;-79
2021/05/15 11:49:57;;;;;;;0.80;0.20;;;20.00;75.10;;;;;;5080214;28;20051;-80
2021/05/15 11:52:35;;;;;;;1.70;0.30;;;20.80;76.60;;;;;;5081108;28;20066;-79
2021/05/15 11:55:03;;;;;;;1.50;0.50;;;21.40;69.40;;;;;;5098491;28;20052;-79
2021/05/15 11:57:30;;;;;;;1.35;0.30;;;21.60;71.60;;;;;;5098715;28;20079;-80
2021/05/15 12:00:13;;;;;;;0.22;0.20;;;22.40;70.10;;;;;;5081564;28;20056;-81
2021/05/15 12:02:45;;;;;;;5.20;0.40;;;22.20;64.80;;;;;;5100378;28;20047;-81
2021/05/15 12:05:17;;;;;;;2.53;0.30;;;20.60;68.50;;;;;;5080966;28;20078;-80
2021/05/15 12:07:48;;;;;;;0.40;0.40;;;18.80;74.80;;;;;;5099513;28;20187;-80
2021/05/15 12:10:23;;;;;;;0.73;0.40;;;17.90;82.40;;;;;;5097970;28;20504;-80
2021/05/15 12:12:58;;;;;;;0.73;0.25;;;17.40;92.40;;;;;;5081478;28;20044;-80
2021/05/15 12:15:27;;;;;;;1.92;0.50;;;17.40;92.90;;;;;;5100901;28;20055;-79
2021/05/15 12:17:55;;;;;;;0.80;0.47;;;17.30;95.80;;;;;;5082266;28;20504;-80
2021/05/15 12:20:41;;;;;;;0.32;0.30;;;17.20;97.00;;;;;;5099560;28;20101;-79
2021/05/15 12:23:11;;;;;;;1.70;0.30;;;17.20;97.80;;;;;;5081683;28;20048;-82
2021/05/15 12:25:40;;;;;;;0.55;0.40;;;17.10;99.90;;;;;;5099752;28;20571;-80
2021/05/15 12:28:30;;;;;;;0.57;0.40;;;17.30;99.60;;;;;;5100555;28;20082;-80
2021/05/15 12:31:02;;;;;;;0.43;0.20;;;17.70;99.90;;;;;;5104167;28;20079;-80
2021/05/15 12:33:29;;;;;;;0.35;0.35;;;17.90;99.90;;;;;;5100687;28;20104;-79
2021/05/15 12:36:01;;;;;;;1.33;0.30;;;18.40;99.90;;;;;;5099915;28;20136;-81
2021/05/15 12:38:30;;;;;;;1.35;0.52;;;18.80;96.00;;;;;;5080363;28;20535;-80
2021/05/15 12:41:08;;;;;;;0.20;0.10;;;18.90;98.70;;;;;;5080186;28;20044;-80
2021/05/15 12:43:38;;;;;;;0.52;0.30;;;19.30;95.20;;;;;;5080145;28;20079;-80
2021/05/15 12:46:17;;;;;;;1.65;0.30;;;19.30;93.00;;;;;;5079673;28;20044;-80
2021/05/15 12:48:57;;;;;;;0.30;0.30;;;19.00;92.50;;;;;;5097808;28;20040;-81
2021/05/15 12:51:29;;;;;;;1.13;0.40;;;18.70;93.50;;;;;;5097742;28;20044;-80
2021/05/15 12:53:57;;;;;;;0.80;0.30;;;18.70;94.20;;;;;;5079381;28;20043;-80
2021/05/15 12:56:36;;;;;;;0.75;0.30;;;18.80;94.80;;;;;;5097213;28;20048;-80
2021/05/15 12:59:03;;;;;;;0.35;0.20;;;19.30;93.90;;;;;;5078966;28;20102;-80